Aden, Yemen
Current Conditions -  °F | °C
As of 6:00 PM on Sunday 23 Nov 2014 (Local Time) from OYAA Reporting Station
Few Clouds Few Clouds  
Wind Chill: 81°   Ceiling: Unl
Heat Index: 82°   Visibility: 6mi
Dew Point: 63°   Wind: 8mph
Humidity: 54%   Direction: 130°SE
Pressure: 29.85"   Gusts: NA
Location:  12.79°N, 45.03°E
Report Text: OYAA 231500Z 13007KT 360V140 9999 FEW020 27/17 Q1011
Loading
Personal Weather Stations






























Interactive Weather Map New forecast layout! Learn more

10-Day Weather Forecast

Advertisements
Track Severe Weather on mobile